createdAt,value
2018-12-21T00:01:37.464Z,6.30
2018-12-21T00:04:04.757Z,6.30
2018-12-21T00:06:32.073Z,6.30
2018-12-21T00:09:00.050Z,6.30
2018-12-21T00:11:27.541Z,6.30
2018-12-21T00:13:54.967Z,6.40
2018-12-21T00:16:22.310Z,6.40
2018-12-21T00:18:49.611Z,6.40
2018-12-21T00:21:21.854Z,6.40
2018-12-21T00:23:46.323Z,6.40
2018-12-21T00:26:13.705Z,6.40
2018-12-21T00:28:40.992Z,6.40
2018-12-21T00:31:14.188Z,6.30
2018-12-21T00:33:47.092Z,6.40
2018-12-21T00:36:20.105Z,6.40
2018-12-21T00:38:53.077Z,6.40
2018-12-21T00:41:19.897Z,6.50
2018-12-21T00:43:58.820Z,6.50
2018-12-21T00:46:31.653Z,6.40
2018-12-21T00:48:58.996Z,6.40
2018-12-21T00:51:30.193Z,6.40
2018-12-21T00:53:55.615Z,6.40
2018-12-21T00:56:22.909Z,6.40
2018-12-21T00:58:50.211Z,6.40
2018-12-21T01:01:17.727Z,6.50
2018-12-21T01:03:45.097Z,6.40
2018-12-21T01:06:12.540Z,6.30
2018-12-21T01:08:39.848Z,6.40
2018-12-21T01:11:07.146Z,6.40
2018-12-21T01:13:34.453Z,6.40
2018-12-21T01:16:01.755Z,6.40
2018-12-21T01:18:29.176Z,6.50
2018-12-21T01:20:57.080Z,6.40
2018-12-21T01:23:24.375Z,6.50
2018-12-21T01:25:52.791Z,6.40
2018-12-21T01:28:20.103Z,6.40
2018-12-21T01:30:47.395Z,6.40
2018-12-21T01:33:14.792Z,6.40
2018-12-21T01:35:42.307Z,6.50
2018-12-21T01:38:09.720Z,6.50
2018-12-21T01:40:37.126Z,6.50
2018-12-21T01:43:04.411Z,6.50
2018-12-21T01:45:31.704Z,6.40
2018-12-21T01:47:59.024Z,6.50
2018-12-21T01:50:26.402Z,6.50
2018-12-21T01:52:53.688Z,6.50
2018-12-21T01:55:20.997Z,6.50
2018-12-21T01:57:48.412Z,6.50
2018-12-21T02:00:15.720Z,6.50
2018-12-21T02:02:43.023Z,6.50
2018-12-21T02:05:10.441Z,6.50
2018-12-21T02:07:37.724Z,6.50
2018-12-21T02:10:05.696Z,6.40
2018-12-21T02:12:33.129Z,6.50
2018-12-21T02:15:00.432Z,6.50
2018-12-21T02:17:27.819Z,6.50
2018-12-21T02:19:55.260Z,6.50
2018-12-21T02:22:22.543Z,6.50
2018-12-21T02:24:49.849Z,6.50
2018-12-21T02:27:17.127Z,6.50
2018-12-21T02:29:44.457Z,6.50
2018-12-21T02:32:11.739Z,6.50
2018-12-21T02:34:39.097Z,6.50
2018-12-21T02:37:06.373Z,6.50
2018-12-21T02:39:33.668Z,6.50
2018-12-21T02:42:00.955Z,6.40
2018-12-21T02:44:28.236Z,6.40
2018-12-21T02:46:55.543Z,6.40
2018-12-21T02:49:22.833Z,6.30
2018-12-21T02:51:50.186Z,6.30
2018-12-21T02:54:17.503Z,6.30
2018-12-21T02:56:44.931Z,6.30
2018-12-21T02:59:12.350Z,6.20
2018-12-21T03:01:39.821Z,6.30
2018-12-21T03:04:07.112Z,6.30
2018-12-21T03:06:34.428Z,6.40
2018-12-21T03:09:01.969Z,6.30
2018-12-21T03:11:29.269Z,6.30
2018-12-21T03:13:56.618Z,6.40
2018-12-21T03:16:23.928Z,6.30
2018-12-21T03:18:51.305Z,6.30
2018-12-21T03:21:18.711Z,6.40
2018-12-21T03:23:46.055Z,6.40
2018-12-21T03:26:13.495Z,6.50
2018-12-21T03:28:40.789Z,6.40
2018-12-21T03:31:08.277Z,6.40
2018-12-21T03:33:35.569Z,6.40
2018-12-21T03:36:03.127Z,6.40
2018-12-21T03:38:30.420Z,6.40
2018-12-21T03:40:57.801Z,6.40
2018-12-21T03:43:25.097Z,6.40
2018-12-21T03:45:52.419Z,6.30
2018-12-21T03:48:19.702Z,6.30
2018-12-21T03:50:47.013Z,6.30
2018-12-21T03:53:14.333Z,6.30
2018-12-21T03:55:41.673Z,6.40
2018-12-21T03:58:08.960Z,6.30
2018-12-21T04:00:36.259Z,6.30
2018-12-21T04:03:03.552Z,6.40
2018-12-21T04:05:30.839Z,6.40
2018-12-21T04:07:58.190Z,6.40
2018-12-21T04:10:25.480Z,6.40
2018-12-21T04:12:52.783Z,6.40
2018-12-21T04:15:20.244Z,6.30
2018-12-21T04:17:47.549Z,6.30
2018-12-21T04:20:14.967Z,6.30
2018-12-21T04:22:42.578Z,6.30
2018-12-21T04:25:09.997Z,6.30
2018-12-21T04:27:38.088Z,6.30
2018-12-21T04:30:06.282Z,6.40
2018-12-21T04:32:33.569Z,6.40
2018-12-21T04:35:00.863Z,6.30
2018-12-21T04:37:28.290Z,6.40
2018-12-21T04:39:55.580Z,6.30
2018-12-21T04:42:22.872Z,6.30
2018-12-21T04:44:50.185Z,6.20
2018-12-21T04:47:17.513Z,6.20
2018-12-21T04:49:44.825Z,6.30
2018-12-21T04:52:12.112Z,6.30
2018-12-21T04:54:39.433Z,6.30
2018-12-21T04:57:06.863Z,6.30
2018-12-21T04:59:34.181Z,6.30
2018-12-21T05:02:01.500Z,6.20
2018-12-21T05:04:28.815Z,6.20
2018-12-21T05:06:56.118Z,6.20
2018-12-21T05:09:23.446Z,6.30
2018-12-21T05:11:50.739Z,6.30
2018-12-21T05:14:18.035Z,6.30
2018-12-21T05:16:45.315Z,6.30
2018-12-21T05:19:12.620Z,6.40
2018-12-21T05:21:39.927Z,6.30
2018-12-21T05:24:07.220Z,6.30
2018-12-21T05:26:34.504Z,6.40
2018-12-21T05:29:01.832Z,6.40
2018-12-21T05:31:29.132Z,6.40
2018-12-21T05:33:56.549Z,6.30
2018-12-21T05:36:23.857Z,6.40
2018-12-21T05:38:51.185Z,6.30
2018-12-21T05:41:18.468Z,6.40
2018-12-21T05:43:46.143Z,6.50
2018-12-21T05:46:13.889Z,6.40
2018-12-21T05:48:41.192Z,6.40
2018-12-21T05:51:08.490Z,6.30
2018-12-21T05:53:35.794Z,6.40
2018-12-21T05:56:03.209Z,6.40
2018-12-21T05:58:30.597Z,6.40
2018-12-21T06:00:57.878Z,6.30
2018-12-21T06:03:25.160Z,6.30
2018-12-21T06:05:52.484Z,6.40
2018-12-21T06:08:19.765Z,6.50
2018-12-21T06:10:47.064Z,6.50
2018-12-21T06:13:14.373Z,6.50
2018-12-21T06:15:41.693Z,6.40
2018-12-21T06:18:08.973Z,6.50
2018-12-21T06:20:36.273Z,6.60
2018-12-21T06:23:09.390Z,6.60
2018-12-21T06:25:32.908Z,6.60
2018-12-21T06:28:00.205Z,6.60
2018-12-21T06:30:27.505Z,6.60
2018-12-21T06:32:54.890Z,6.60
2018-12-21T06:35:22.189Z,6.70
2018-12-21T06:37:49.471Z,6.80
2018-12-21T06:40:16.769Z,6.70
2018-12-21T06:42:44.446Z,6.80
2018-12-21T06:45:11.766Z,6.80
2018-12-21T06:47:39.053Z,6.80
2018-12-21T06:50:06.657Z,6.80
2018-12-21T06:52:33.972Z,6.80
2018-12-21T06:55:01.283Z,6.80
2018-12-21T06:57:28.575Z,6.90
2018-12-21T06:59:55.897Z,6.90
2018-12-21T07:02:23.188Z,6.80
2018-12-21T07:04:50.483Z,6.80
2018-12-21T07:07:17.811Z,6.80
2018-12-21T07:09:45.135Z,6.80
2018-12-21T07:12:12.439Z,6.80
2018-12-21T07:14:39.746Z,6.80
2018-12-21T07:17:07.045Z,6.70
2018-12-21T07:19:34.336Z,6.80
2018-12-21T07:22:01.649Z,6.80
2018-12-21T07:24:28.936Z,6.70
2018-12-21T07:26:56.227Z,6.70
2018-12-21T07:29:23.514Z,6.70
2018-12-21T07:31:50.944Z,6.60
2018-12-21T07:34:18.234Z,6.60
2018-12-21T07:36:45.548Z,6.60
2018-12-21T07:39:12.837Z,6.70
2018-12-21T07:41:40.157Z,6.60
2018-12-21T07:44:07.526Z,6.60
2018-12-21T07:46:34.972Z,6.60
2018-12-21T07:49:02.297Z,6.50
2018-12-21T07:51:29.615Z,6.50
2018-12-21T07:53:56.924Z,6.50
2018-12-21T07:56:24.270Z,6.50
2018-12-21T07:58:57.092Z,6.60
2018-12-21T08:01:20.872Z,6.50
2018-12-21T08:03:48.176Z,6.60
2018-12-21T08:06:15.472Z,6.60
2018-12-21T08:08:42.845Z,6.70
2018-12-21T08:11:10.266Z,6.60
2018-12-21T08:13:37.567Z,6.70
2018-12-21T08:16:04.865Z,6.60
2018-12-21T08:18:32.151Z,6.70
2018-12-21T08:20:59.456Z,6.70
2018-12-21T08:23:26.840Z,6.70
2018-12-21T08:25:54.153Z,6.80
2018-12-21T08:28:21.461Z,6.80
2018-12-21T08:30:48.749Z,6.70
2018-12-21T08:33:16.039Z,6.80
2018-12-21T08:35:43.335Z,6.80
2018-12-21T08:38:10.616Z,6.90
2018-12-21T08:40:37.878Z,6.80
2018-12-21T08:43:05.189Z,6.80
2018-12-21T08:45:32.464Z,6.80
2018-12-21T08:47:59.759Z,6.80
2018-12-21T08:50:27.056Z,6.80
2018-12-21T08:52:54.356Z,6.80
2018-12-21T08:55:21.657Z,6.80
2018-12-21T08:57:48.971Z,6.80
2018-12-21T09:00:16.264Z,6.90
2018-12-21T09:02:43.548Z,6.80
2018-12-21T09:05:10.843Z,6.80
2018-12-21T09:07:38.220Z,6.80
2018-12-21T09:10:08.256Z,6.90
2018-12-21T09:12:35.560Z,6.90
2018-12-21T09:15:03.176Z,6.90
2018-12-21T09:17:30.464Z,6.90
2018-12-21T09:19:57.770Z,6.80
2018-12-21T09:22:25.105Z,6.90
2018-12-21T09:24:52.421Z,6.90
2018-12-21T09:27:19.736Z,6.80
2018-12-21T09:29:47.032Z,6.80
2018-12-21T09:32:14.328Z,6.80
2018-12-21T09:34:41.750Z,6.80
2018-12-21T09:37:09.382Z,6.80
2018-12-21T09:39:36.805Z,6.70
2018-12-21T09:42:04.151Z,6.60
2018-12-21T09:44:31.467Z,6.70
2018-12-21T09:46:58.765Z,6.70
2018-12-21T09:49:26.059Z,6.70
2018-12-21T09:51:53.423Z,6.70
2018-12-21T09:54:20.735Z,6.70
2018-12-21T09:56:48.025Z,6.60
2018-12-21T09:59:15.435Z,6.70
2018-12-21T10:01:42.727Z,6.70
2018-12-21T10:04:10.028Z,6.80
2018-12-21T10:06:37.315Z,6.90
2018-12-21T10:09:06.367Z,6.90
2018-12-21T10:11:33.705Z,7.00
2018-12-21T10:14:01.069Z,7.00
2018-12-21T10:16:28.365Z,7.00
2018-12-21T10:18:55.882Z,7.20
2018-12-21T10:21:23.202Z,7.20
2018-12-21T10:23:50.568Z,7.20
2018-12-21T10:26:17.863Z,7.20
2018-12-21T10:28:45.157Z,7.30
2018-12-21T10:31:12.612Z,7.20
2018-12-21T10:33:40.016Z,7.20
2018-12-21T10:36:07.316Z,7.20
2018-12-21T10:38:34.599Z,7.10
2018-12-21T10:41:01.920Z,7.10
2018-12-21T10:43:29.207Z,7.20
2018-12-21T10:45:56.652Z,7.10
2018-12-21T10:48:23.940Z,7.10
2018-12-21T10:50:51.270Z,7.10
2018-12-21T10:53:18.581Z,7.20
2018-12-21T10:55:45.879Z,7.20
2018-12-21T10:58:13.181Z,7.10
2018-12-21T11:00:40.488Z,7.10
2018-12-21T11:03:07.788Z,7.10
2018-12-21T11:05:35.214Z,7.10
2018-12-21T11:08:02.642Z,7.10
2018-12-21T11:10:30.012Z,7.20
2018-12-21T11:12:57.309Z,7.20
2018-12-21T11:15:24.604Z,7.10
2018-12-21T11:17:51.913Z,7.20
2018-12-21T11:20:19.330Z,7.20
2018-12-21T11:22:46.645Z,7.10
2018-12-21T11:25:13.980Z,7.10
2018-12-21T11:27:41.295Z,7.20
2018-12-21T11:30:08.824Z,7.20
2018-12-21T11:32:36.239Z,7.20
2018-12-21T11:35:04.001Z,7.20
2018-12-21T11:37:31.303Z,7.30
2018-12-21T11:39:58.620Z,7.30
2018-12-21T11:42:25.924Z,7.40
2018-12-21T11:44:53.244Z,7.40
2018-12-21T11:47:20.553Z,7.40
2018-12-21T11:49:47.854Z,7.40
2018-12-21T11:52:15.278Z,7.50
2018-12-21T11:54:44.390Z,7.50
2018-12-21T11:57:11.913Z,7.50
2018-12-21T11:59:44.884Z,7.60
2018-12-21T12:02:08.579Z,7.60
2018-12-21T12:04:35.972Z,7.70
2018-12-21T12:07:03.295Z,7.70
2018-12-21T12:09:30.590Z,7.70
2018-12-21T12:11:57.888Z,7.70
2018-12-21T12:14:25.188Z,7.80
2018-12-21T12:16:52.543Z,7.90
2018-12-21T12:19:19.867Z,7.90
2018-12-21T12:21:47.174Z,7.90
2018-12-21T12:24:14.459Z,7.90
2018-12-21T12:26:44.570Z,8.00
2018-12-21T12:29:11.280Z,8.00
2018-12-21T12:31:44.318Z,8.00
2018-12-21T12:34:11.547Z,8.10
2018-12-21T12:36:38.892Z,8.10
2018-12-21T12:39:06.281Z,8.20
2018-12-21T12:41:33.503Z,8.30
2018-12-21T12:44:06.542Z,8.30
2018-12-21T12:46:33.867Z,8.40
2018-12-21T12:49:01.138Z,8.40
2018-12-21T12:51:28.504Z,8.50
2018-12-21T12:53:55.796Z,8.50
2018-12-21T12:56:23.004Z,8.50
2018-12-21T12:58:50.261Z,8.50
2018-12-21T13:01:17.498Z,8.50
2018-12-21T13:03:44.857Z,8.60
2018-12-21T13:06:12.073Z,8.70
2018-12-21T13:08:39.323Z,8.70
2018-12-21T13:11:06.549Z,8.70
2018-12-21T13:13:33.781Z,8.70
2018-12-21T13:16:01.021Z,8.80
2018-12-21T13:18:28.271Z,8.80
2018-12-21T13:20:55.503Z,8.70
2018-12-21T13:23:22.742Z,8.80
2018-12-21T13:25:53.941Z,8.80
2018-12-21T13:28:21.182Z,8.80
2018-12-21T13:30:48.409Z,8.80
2018-12-21T13:33:15.732Z,8.90
2018-12-21T13:35:43.081Z,8.90
2018-12-21T13:38:10.357Z,8.80
2018-12-21T13:40:37.603Z,8.80
2018-12-21T13:43:04.838Z,8.90
2018-12-21T13:45:32.081Z,8.90
2018-12-21T13:47:59.317Z,9.00
2018-12-21T13:50:26.570Z,8.90
2018-12-21T13:52:53.791Z,8.90
2018-12-21T13:55:21.141Z,9.00
2018-12-21T13:57:48.360Z,9.00
2018-12-21T14:00:15.705Z,9.10
2018-12-21T14:02:42.945Z,9.10
2018-12-21T14:05:10.192Z,9.00
2018-12-21T14:07:37.465Z,9.10
2018-12-21T14:10:08.054Z,9.20
2018-12-21T14:12:35.281Z,9.30
2018-12-21T14:15:02.656Z,9.40
2018-12-21T14:17:29.902Z,9.30
2018-12-21T14:19:57.144Z,9.40
2018-12-21T14:22:24.382Z,9.40
2018-12-21T14:24:51.613Z,9.50
2018-12-21T14:27:18.849Z,9.40
2018-12-21T14:29:46.068Z,9.50
2018-12-21T14:32:13.285Z,9.50
2018-12-21T14:34:40.632Z,9.50
2018-12-21T14:37:08.029Z,9.50
2018-12-21T14:39:35.269Z,9.60
2018-12-21T14:42:02.612Z,9.50
2018-12-21T14:44:29.846Z,9.50
2018-12-21T14:46:57.110Z,9.60
2018-12-21T14:49:24.353Z,9.60
2018-12-21T14:51:51.749Z,9.70
2018-12-21T14:54:19.126Z,9.70
2018-12-21T14:56:46.391Z,9.70
2018-12-21T14:59:13.663Z,9.60
2018-12-21T15:01:41.048Z,9.70
2018-12-21T15:04:08.287Z,9.70
2018-12-21T15:06:35.549Z,9.70
2018-12-21T15:09:05.151Z,9.70
2018-12-21T15:11:32.643Z,9.70
2018-12-21T15:13:59.925Z,9.70
2018-12-21T15:16:27.227Z,9.70
2018-12-21T15:18:54.456Z,9.70
2018-12-21T15:21:21.728Z,9.60
2018-12-21T15:23:50.057Z,9.70
2018-12-21T15:26:17.360Z,9.70
2018-12-21T15:28:44.716Z,9.70
2018-12-21T15:31:12.052Z,9.70
2018-12-21T15:33:39.293Z,9.70
2018-12-21T15:36:06.590Z,9.70
2018-12-21T15:38:33.817Z,9.70
2018-12-21T15:41:01.150Z,9.70
2018-12-21T15:43:28.386Z,9.70
2018-12-21T15:45:55.605Z,9.70
2018-12-21T15:48:22.856Z,9.80
2018-12-21T15:50:50.275Z,9.80
2018-12-21T15:53:17.601Z,9.90
2018-12-21T15:55:44.949Z,9.90
2018-12-21T15:58:12.331Z,10.00
2018-12-21T16:00:39.576Z,10.00
2018-12-21T16:03:06.976Z,10.00
2018-12-21T16:05:34.248Z,10.10
2018-12-21T16:08:01.610Z,10.10
2018-12-21T16:10:28.846Z,10.10
2018-12-21T16:12:56.060Z,10.10
2018-12-21T16:15:23.453Z,10.10
2018-12-21T16:17:50.713Z,10.10
2018-12-21T16:20:18.011Z,10.10
2018-12-21T16:22:45.384Z,10.10
2018-12-21T16:25:12.600Z,10.10
2018-12-21T16:27:40.068Z,10.20
2018-12-21T16:30:10.058Z,10.20
2018-12-21T16:32:37.599Z,10.20
2018-12-21T16:35:05.059Z,10.20
2018-12-21T16:37:32.441Z,10.20
2018-12-21T16:39:59.677Z,10.30
2018-12-21T16:42:27.069Z,10.20
2018-12-21T16:44:54.726Z,10.20
2018-12-21T16:47:22.095Z,10.20
2018-12-21T16:49:49.494Z,10.20
2018-12-21T16:52:16.861Z,10.20
2018-12-21T16:54:44.089Z,10.30
2018-12-21T16:57:11.279Z,10.30
2018-12-21T16:59:38.577Z,10.20
2018-12-21T17:02:05.905Z,10.20
2018-12-21T17:04:33.220Z,10.20
2018-12-21T17:07:00.428Z,10.20
2018-12-21T17:09:27.754Z,10.20
2018-12-21T17:11:55.037Z,10.20
2018-12-21T17:14:22.280Z,10.20
2018-12-21T17:16:49.537Z,10.20
2018-12-21T17:19:20.047Z,10.20
2018-12-21T17:21:47.303Z,10.20
2018-12-21T17:24:14.570Z,10.30
2018-12-21T17:26:43.474Z,10.30
2018-12-21T17:29:10.721Z,10.20
2018-12-21T17:31:38.035Z,10.30
2018-12-21T17:34:05.246Z,10.30
2018-12-21T17:36:32.520Z,10.30
2018-12-21T17:38:59.730Z,10.30
2018-12-21T17:41:26.937Z,10.30
2018-12-21T17:43:54.161Z,10.30
2018-12-21T17:46:21.385Z,10.40
2018-12-21T17:48:48.593Z,10.40
2018-12-21T17:51:15.814Z,10.40
2018-12-21T17:53:43.137Z,10.30
2018-12-21T17:56:10.360Z,10.40
2018-12-21T17:58:37.562Z,10.40
2018-12-21T18:01:05.988Z,10.40
2018-12-21T18:03:38.733Z,10.40
2018-12-21T18:06:05.932Z,10.40
2018-12-21T18:08:33.269Z,10.40
2018-12-21T18:11:00.492Z,10.50
2018-12-21T18:13:27.705Z,10.40
2018-12-21T18:15:54.943Z,10.40
2018-12-21T18:18:25.300Z,10.40
2018-12-21T18:20:51.514Z,10.40
2018-12-21T18:23:18.969Z,10.50
2018-12-21T18:25:46.191Z,10.50
2018-12-21T18:28:18.223Z,10.50
2018-12-21T18:30:48.506Z,10.50
2018-12-21T18:33:18.229Z,10.50
2018-12-21T18:35:45.445Z,10.50
2018-12-21T18:38:17.911Z,10.50
2018-12-21T18:40:45.153Z,10.50
2018-12-21T18:43:12.377Z,10.50
2018-12-21T18:45:39.588Z,10.60
2018-12-21T18:48:06.923Z,10.50
2018-12-21T18:50:34.117Z,10.60
2018-12-21T18:53:01.311Z,10.60
2018-12-21T18:55:28.636Z,10.60
2018-12-21T18:57:55.854Z,10.60
2018-12-21T19:00:23.083Z,10.60
2018-12-21T19:02:50.307Z,10.60
2018-12-21T19:05:17.552Z,10.60
2018-12-21T19:07:44.904Z,10.60
2018-12-21T19:10:12.253Z,10.50
2018-12-21T19:12:39.516Z,10.60
2018-12-21T19:15:08.917Z,10.60
2018-12-21T19:17:36.220Z,10.60
2018-12-21T19:20:06.032Z,10.60
2018-12-21T19:22:33.493Z,10.60
2018-12-21T19:25:00.753Z,10.60
2018-12-21T19:27:28.041Z,10.60
2018-12-21T19:29:55.367Z,10.60
2018-12-21T19:32:22.567Z,10.60
2018-12-21T19:34:49.901Z,10.60
2018-12-21T19:37:17.149Z,10.70
2018-12-21T19:39:44.427Z,10.60
2018-12-21T19:42:11.645Z,10.60
2018-12-21T19:44:38.909Z,10.60
2018-12-21T19:47:06.127Z,10.60
2018-12-21T19:49:33.350Z,10.60
2018-12-21T19:52:00.687Z,10.70
2018-12-21T19:54:27.921Z,10.60
2018-12-21T19:57:04.421Z,10.60
2018-12-21T19:59:29.615Z,10.60
2018-12-21T20:01:57.075Z,10.70
2018-12-21T20:04:24.293Z,10.60
2018-12-21T20:06:51.703Z,10.70
2018-12-21T20:09:19.213Z,10.60
2018-12-21T20:11:46.441Z,10.60
2018-12-21T20:14:13.681Z,10.60
2018-12-21T20:16:41.034Z,10.60
2018-12-21T20:19:08.383Z,10.60
2018-12-21T20:21:35.612Z,10.60
2018-12-21T20:24:02.861Z,10.60
2018-12-21T20:26:30.589Z,10.60
2018-12-21T20:28:57.909Z,10.60
2018-12-21T20:31:25.139Z,10.60
2018-12-21T20:33:52.368Z,10.60
2018-12-21T20:36:19.752Z,10.60
2018-12-21T20:38:47.433Z,10.60
2018-12-21T20:41:15.041Z,10.50
2018-12-21T20:43:42.244Z,10.50
2018-12-21T20:46:09.452Z,10.60
2018-12-21T20:48:37.152Z,10.60
2018-12-21T20:51:04.412Z,10.50
2018-12-21T20:53:31.638Z,10.50
2018-12-21T20:55:58.908Z,10.60
2018-12-21T20:58:33.700Z,10.50
2018-12-21T21:01:00.943Z,10.60
2018-12-21T21:03:28.226Z,10.60
2018-12-21T21:05:55.568Z,10.60
2018-12-21T21:08:22.826Z,10.60
2018-12-21T21:10:50.108Z,10.60
2018-12-21T21:13:19.425Z,10.60
2018-12-21T21:15:46.565Z,10.60
2018-12-21T21:18:13.803Z,10.60
2018-12-21T21:20:41.065Z,10.60
2018-12-21T21:23:08.277Z,10.50
2018-12-21T21:25:35.526Z,10.40
2018-12-21T21:28:02.947Z,10.50
2018-12-21T21:30:33.241Z,10.40
2018-12-21T21:33:00.553Z,10.40
2018-12-21T21:35:27.760Z,10.50
2018-12-21T21:37:55.050Z,10.50
2018-12-21T21:40:22.309Z,10.40
2018-12-21T21:42:57.232Z,10.40
2018-12-21T21:45:18.881Z,10.40
2018-12-21T21:47:46.113Z,10.40
2018-12-21T21:50:13.357Z,10.40
2018-12-21T21:52:40.581Z,10.40
2018-12-21T21:55:08.020Z,10.40
2018-12-21T21:57:39.177Z,10.40
2018-12-21T22:00:07.745Z,10.40
2018-12-21T22:02:35.085Z,10.40
2018-12-21T22:05:02.409Z,10.30
2018-12-21T22:07:29.651Z,10.30
2018-12-21T22:09:56.964Z,10.30
2018-12-21T22:12:24.281Z,10.30
2018-12-21T22:14:51.607Z,10.30
2018-12-21T22:17:18.821Z,10.30
2018-12-21T22:19:46.160Z,10.30
2018-12-21T22:22:13.492Z,10.30
2018-12-21T22:24:40.741Z,10.30
2018-12-21T22:27:07.947Z,10.30
2018-12-21T22:29:35.252Z,10.30
2018-12-21T22:32:02.568Z,10.30
2018-12-21T22:34:29.845Z,10.30
2018-12-21T22:36:57.070Z,10.20
2018-12-21T22:39:24.263Z,10.30
2018-12-21T22:41:51.456Z,10.30
2018-12-21T22:44:18.667Z,10.30
2018-12-21T22:46:45.930Z,10.30
2018-12-21T22:49:13.193Z,10.30
2018-12-21T22:51:40.411Z,10.20
2018-12-21T22:54:07.654Z,10.30
2018-12-21T22:56:34.883Z,10.30
2018-12-21T22:59:02.128Z,10.30
2018-12-21T23:01:29.349Z,10.30
2018-12-21T23:03:56.592Z,10.30
2018-12-21T23:06:23.836Z,10.30
2018-12-21T23:08:51.062Z,10.30
2018-12-21T23:11:18.317Z,10.20
2018-12-21T23:13:45.594Z,10.30
2018-12-21T23:16:12.925Z,10.20
2018-12-21T23:18:40.112Z,10.20
2018-12-21T23:21:07.395Z,10.30
2018-12-21T23:23:34.596Z,10.30
2018-12-21T23:26:01.862Z,10.30
2018-12-21T23:28:29.065Z,10.20
2018-12-21T23:30:56.300Z,10.20
2018-12-21T23:33:23.504Z,10.20
2018-12-21T23:35:50.741Z,10.20
2018-12-21T23:38:17.994Z,10.20
2018-12-21T23:40:45.200Z,10.20
2018-12-21T23:43:12.456Z,10.20
2018-12-21T23:45:39.680Z,10.20
2018-12-21T23:48:06.887Z,10.30
2018-12-21T23:50:34.121Z,10.30
2018-12-21T23:53:01.388Z,10.20
2018-12-21T23:55:28.673Z,10.20
2018-12-21T23:57:55.972Z,10.30
